Time;durP1;ratioP1;P1;durP2;ratioP2;P2;SDS_P1;SDS_P2;PMS_P1;PMS_P2;Temp;Humidity;BMP_temperature;BMP_pressure;BME280_temperature;BME280_humidity;BME280_pressure;Samples;Min_cycle;Max_cycle;Signal;HPM_P1;HPM_P2
2022/03/31 00:01:33;;;;;;;36.15;18.58;;;435.40;1356.80;;;;;;5096081;28;20028;-60
2022/03/31 00:03:59;;;;;;;40.10;19.27;;;435.40;1356.80;;;;;;5095731;28;20016;-60
2022/03/31 00:06:25;;;;;;;44.10;19.63;;;435.40;1356.80;;;;;;5095331;28;20443;-63
2022/03/31 00:08:50;;;;;;;47.28;20.27;;;435.40;1356.80;;;;;;5095264;28;20040;-62
2022/03/31 00:11:18;;;;;;;41.22;18.85;;;435.40;1356.80;;;;;;5095350;28;20032;-59
2022/03/31 00:13:43;;;;;;;37.03;17.30;;;435.40;1356.80;;;;;;5095267;28;20032;-62
2022/03/31 00:16:10;;;;;;;32.83;15.65;;;435.40;1356.80;;;;;;5095243;28;20024;-63
2022/03/31 00:18:36;;;;;;;34.30;15.85;;;435.30;1356.80;;;;;;5095223;28;20059;-63
2022/03/31 00:21:02;;;;;;;37.47;16.33;;;435.30;1356.80;;;;;;5095075;28;20492;-61
2022/03/31 00:23:29;;;;;;;35.78;17.88;;;435.30;1356.80;;;;;;5095216;28;20024;-60
2022/03/31 00:25:55;;;;;;;30.55;14.95;;;435.30;1331.20;;;;;;5095197;28;20036;-61
2022/03/31 00:28:22;;;;;;;35.95;15.55;;;435.30;1356.80;;;;;;5095076;28;20023;-62
2022/03/31 00:30:48;;;;;;;30.30;13.52;;;435.30;1356.80;;;;;;5094765;28;20402;-61
2022/03/31 00:33:15;;;;;;;29.88;13.32;;;435.30;1331.20;;;;;;5095043;28;20036;-60
2022/03/31 00:35:41;;;;;;;27.48;13.43;;;435.30;1356.80;;;;;;5094668;28;20024;-60
2022/03/31 00:38:06;;;;;;;29.75;12.02;;;435.20;1356.80;;;;;;5094961;28;20076;-61
2022/03/31 00:40:32;;;;;;;23.20;11.77;;;435.20;1356.80;;;;;;5094882;28;20492;-61
2022/03/31 00:42:59;;;;;;;29.83;11.30;;;435.20;1356.80;;;;;;5094829;28;20035;-60
2022/03/31 00:45:34;;;;;;;28.65;11.63;;;435.20;1356.80;;;;;;5094631;28;20424;-62
2022/03/31 00:48:01;;;;;;;28.50;12.50;;;410.50;1356.80;;;;;;5093213;28;20080;-61
2022/03/31 00:50:28;;;;;;;27.58;11.25;;;410.50;1356.80;;;;;;5094681;28;20031;-61
2022/03/31 00:52:54;;;;;;;24.73;10.85;;;410.50;1356.80;;;;;;5094417;28;20054;-60
2022/03/31 00:55:21;;;;;;;24.75;10.38;;;410.40;1356.80;;;;;;5094679;28;20020;-60
2022/03/31 00:57:48;;;;;;;22.25;10.77;;;410.40;1356.80;;;;;;5094536;28;20039;-60
2022/03/31 01:00:15;;;;;;;34.00;10.55;;;410.40;1356.80;;;;;;5094458;28;20047;-61
2022/03/31 01:02:43;;;;;;;23.42;10.10;;;410.40;1331.20;;;;;;5094440;28;20028;-60
2022/03/31 01:05:10;;;;;;;28.15;10.30;;;410.40;1331.20;;;;;;5093586;28;20096;-62
2022/03/31 01:07:37;;;;;;;22.05;9.70;;;410.40;1331.20;;;;;;5094331;28;20095;-60
2022/03/31 01:10:05;;;;;;;26.60;10.10;;;410.40;1331.20;;;;;;5094131;28;20051;-61
2022/03/31 01:12:31;;;;;;;22.40;9.07;;;410.40;1331.20;;;;;;5093949;28;20040;-60
2022/03/31 01:15:07;;;;;;;38.13;10.63;;;410.40;1331.20;;;;;;5094156;28;20017;-60
2022/03/31 01:17:39;;;;;;;34.13;11.30;;;410.40;1331.20;;;;;;5094265;28;20028;-61
2022/03/31 01:20:07;;;;;;;32.70;10.95;;;410.40;1331.20;;;;;;5094073;28;20016;-60
2022/03/31 01:22:33;;;;;;;25.05;9.60;;;410.40;1331.20;;;;;;5094313;28;20044;-60
2022/03/31 01:25:00;;;;;;;25.92;9.95;;;410.50;1305.60;;;;;;5094159;28;20370;-60
2022/03/31 01:27:26;;;;;;;28.63;10.65;;;410.40;1331.20;;;;;;5094597;28;20024;-60
2022/03/31 01:29:52;;;;;;;37.88;10.95;;;410.40;1331.20;;;;;;5093868;28;20027;-60
2022/03/31 01:32:19;;;;;;;41.47;9.68;;;410.40;1331.20;;;;;;5093773;28;20044;-60
2022/03/31 01:34:45;;;;;;;34.22;10.07;;;410.40;1331.20;;;;;;5094105;28;20036;-61
2022/03/31 01:37:13;;;;;;;64.00;11.82;;;410.40;1331.20;;;;;;5093703;28;20442;-60
2022/03/31 01:39:39;;;;;;;26.17;8.90;;;410.50;1331.20;;;;;;5093985;28;20114;-61
2022/03/31 01:42:05;;;;;;;38.28;10.32;;;410.40;1331.20;;;;;;5093424;28;20108;-60
2022/03/31 01:44:32;;;;;;;37.67;9.88;;;410.40;1331.20;;;;;;5093873;28;20024;-60
2022/03/31 01:46:58;;;;;;;30.83;9.55;;;410.40;1331.20;;;;;;5094618;28;20050;-60
2022/03/31 01:49:23;;;;;;;44.00;10.75;;;410.30;1331.20;;;;;;5094096;28;20369;-60
2022/03/31 01:51:49;;;;;;;31.83;10.43;;;410.30;1331.20;;;;;;5093922;28;20039;-60
2022/03/31 01:54:15;;;;;;;37.70;10.23;;;410.20;1356.80;;;;;;5094098;28;20039;-60
2022/03/31 01:56:42;;;;;;;26.20;10.18;;;410.10;1356.80;;;;;;5093704;28;20086;-60
2022/03/31 01:59:08;;;;;;;38.13;9.68;;;410.10;1356.80;;;;;;5093466;28;20035;-60
2022/03/31 02:01:34;;;;;;;27.02;10.75;;;410.10;1356.80;;;;;;5093750;28;20554;-61
2022/03/31 02:04:00;;;;;;;30.65;9.38;;;410.00;1356.80;;;;;;5093647;28;20020;-61
2022/03/31 02:06:26;;;;;;;41.40;9.80;;;410.10;1356.80;;;;;;5093692;28;20081;-61
2022/03/31 02:08:51;;;;;;;33.28;8.73;;;410.10;1356.80;;;;;;5093508;28;20052;-61
2022/03/31 02:11:18;;;;;;;29.02;8.30;;;410.00;1356.80;;;;;;5093649;28;20097;-61
2022/03/31 02:13:44;;;;;;;26.65;10.15;;;410.00;1331.20;;;;;;5093545;28;20028;-62
2022/03/31 02:16:10;;;;;;;28.20;9.32;;;410.00;1331.20;;;;;;5094735;28;20448;-61
2022/03/31 02:18:36;;;;;;;31.25;8.77;;;409.90;1356.80;;;;;;5097635;28;20115;-60
2022/03/31 02:21:02;;;;;;;35.60;10.32;;;409.90;1356.80;;;;;;5097521;28;20020;-61
2022/03/31 02:23:27;;;;;;;32.97;10.30;;;409.90;1331.20;;;;;;5097615;28;20439;-61
2022/03/31 02:25:53;;;;;;;35.97;9.20;;;409.90;1331.20;;;;;;5097267;28;20474;-61
2022/03/31 02:28:19;;;;;;;37.70;9.38;;;409.90;1331.20;;;;;;5097341;28;20024;-61
2022/03/31 02:30:45;;;;;;;34.45;9.70;;;409.90;1331.20;;;;;;5097058;28;20024;-61
2022/03/31 02:33:10;;;;;;;26.77;8.82;;;409.80;1331.20;;;;;;5097406;28;20035;-60
2022/03/31 02:35:36;;;;;;;25.02;8.88;;;409.80;1331.20;;;;;;5097212;28;20078;-61
2022/03/31 02:38:02;;;;;;;30.02;9.20;;;409.80;1331.20;;;;;;5097152;28;20036;-62
2022/03/31 02:40:28;;;;;;;34.30;9.18;;;409.80;1356.80;;;;;;5097138;28;20058;-62
2022/03/31 02:42:54;;;;;;;33.88;8.73;;;409.80;1356.80;;;;;;5096802;28;20051;-62
2022/03/31 02:45:21;;;;;;;32.45;8.57;;;409.80;1356.80;;;;;;5096847;28;20028;-62
2022/03/31 02:47:46;;;;;;;32.92;8.57;;;409.80;1356.80;;;;;;5097178;28;20020;-62
2022/03/31 02:50:17;;;;;;;32.25;8.68;;;409.80;1331.20;;;;;;5096844;28;20024;-63
2022/03/31 02:55:29;;;;;;;30.42;8.80;;;409.80;1331.20;;;;;;5097270;28;20038;-62
2022/03/31 02:58:01;;;;;;;40.90;10.02;;;409.80;1331.20;;;;;;5097104;28;20024;-63
2022/03/31 03:00:28;;;;;;;33.47;10.05;;;409.80;1331.20;;;;;;5096566;28;20469;-61
2022/03/31 03:02:54;;;;;;;37.22;9.13;;;409.80;1331.20;;;;;;5096919;28;20107;-61
2022/03/31 03:05:20;;;;;;;36.03;8.60;;;409.80;1331.20;;;;;;5096748;28;20043;-62
2022/03/31 03:07:46;;;;;;;37.10;8.90;;;409.70;1331.20;;;;;;5096418;28;20024;-63
2022/03/31 03:10:13;;;;;;;35.65;9.35;;;409.70;1331.20;;;;;;5096626;28;20443;-61
2022/03/31 03:12:41;;;;;;;30.98;8.52;;;409.70;1331.20;;;;;;5096242;28;20097;-62
2022/03/31 03:15:08;;;;;;;26.55;9.25;;;409.70;1331.20;;;;;;5096462;28;20017;-62
2022/03/31 03:17:33;;;;;;;25.55;8.57;;;409.70;1331.20;;;;;;5096536;28;20059;-62
2022/03/31 03:19:59;;;;;;;31.55;9.05;;;409.70;1331.20;;;;;;5096303;28;20016;-61
2022/03/31 03:22:26;;;;;;;34.05;9.00;;;409.70;1331.20;;;;;;5096053;28;20039;-62
2022/03/31 03:24:52;;;;;;;30.35;8.50;;;409.70;1331.20;;;;;;5096246;28;20028;-63
2022/03/31 03:27:18;;;;;;;33.95;9.00;;;409.70;1331.20;;;;;;5095410;28;20032;-61
2022/03/31 03:29:47;;;;;;;36.80;8.02;;;409.70;1331.20;;;;;;5095995;28;20064;-61
2022/03/31 03:32:14;;;;;;;28.42;8.55;;;409.80;1331.20;;;;;;5096080;28;20488;-60
2022/03/31 03:34:40;;;;;;;32.58;8.32;;;409.70;1356.80;;;;;;5096040;28;20097;-61
2022/03/31 03:37:06;;;;;;;30.75;8.93;;;409.70;1382.40;;;;;;5095988;28;20028;-62
2022/03/31 03:39:34;;;;;;;27.83;7.80;;;409.70;1408.00;;;;;;5096174;28;20044;-61
2022/03/31 03:42:00;;;;;;;26.63;8.00;;;409.60;1433.60;;;;;;5096038;28;20027;-61
2022/03/31 03:44:26;;;;;;;19.95;7.00;;;409.70;1433.60;;;;;;5095992;28;20102;-61
2022/03/31 03:46:53;;;;;;;20.63;6.95;;;409.60;1459.20;;;;;;5095735;28;20529;-61
2022/03/31 03:49:18;;;;;;;20.98;6.55;;;409.60;1459.20;;;;;;5095873;28;20035;-61
2022/03/31 03:51:45;;;;;;;21.23;6.78;;;409.60;1484.80;;;;;;5095462;28;20063;-61
2022/03/31 03:54:11;;;;;;;28.65;7.78;;;409.60;1484.80;;;;;;5095714;28;20461;-61
2022/03/31 03:56:37;;;;;;;23.45;6.07;;;409.60;1484.80;;;;;;5095962;28;20078;-61
2022/03/31 03:59:04;;;;;;;23.15;6.07;;;384.90;1484.80;;;;;;5095443;28;20535;-62
2022/03/31 04:01:30;;;;;;;29.60;6.72;;;384.90;1510.40;;;;;;5095642;28;20032;-62
2022/03/31 04:03:57;;;;;;;25.52;6.90;;;384.90;1510.40;;;;;;5095179;28;20047;-61
2022/03/31 04:06:23;;;;;;;27.13;6.65;;;384.90;1510.40;;;;;;5095374;28;20032;-62
2022/03/31 04:08:49;;;;;;;21.80;6.35;;;384.90;1536.00;;;;;;5094813;28;20051;-61
2022/03/31 04:11:14;;;;;;;18.92;6.78;;;384.80;1536.00;;;;;;5095343;28;20028;-61
2022/03/31 04:13:40;;;;;;;22.40;7.10;;;384.70;1561.60;;;;;;5095362;28;20023;-61
2022/03/31 04:16:06;;;;;;;16.63;6.20;;;384.70;1587.20;;;;;;5095327;28;20031;-62
2022/03/31 04:18:32;;;;;;;18.95;6.47;;;384.70;1587.20;;;;;;5095346;28;20032;-61
2022/03/31 04:21:01;;;;;;;27.38;7.68;;;384.60;1587.20;;;;;;5095257;28;20355;-61
2022/03/31 04:23:27;;;;;;;25.38;6.85;;;384.60;1587.20;;;;;;5095228;28;20032;-61
2022/03/31 04:25:53;;;;;;;19.77;6.43;;;384.60;1612.80;;;;;;5095150;28;20054;-60
2022/03/31 04:28:18;;;;;;;30.67;7.53;;;384.50;1638.40;;;;;;5095109;28;20048;-61
2022/03/31 04:30:44;;;;;;;38.17;11.23;;;384.50;1638.40;;;;;;5094792;28;20031;-62
2022/03/31 04:33:10;;;;;;;29.88;10.00;;;384.50;1638.40;;;;;;5095083;28;20032;-61
2022/03/31 04:35:36;;;;;;;30.25;9.88;;;384.50;1638.40;;;;;;5095045;28;20423;-63
2022/03/31 04:38:03;;;;;;;30.05;8.80;;;384.50;1638.40;;;;;;5094925;28;20028;-68
2022/03/31 04:40:28;;;;;;;25.83;8.32;;;384.40;1612.80;;;;;;5094711;28;20020;-61
2022/03/31 04:42:54;;;;;;;24.17;7.20;;;384.40;1612.80;;;;;;5095133;28;20099;-61
2022/03/31 04:45:20;;;;;;;22.65;6.40;;;384.40;1664.00;;;;;;5094540;28;20048;-61
2022/03/31 04:47:46;;;;;;;29.30;8.27;;;384.40;1664.00;;;;;;5094626;28;20024;-60
2022/03/31 04:50:13;;;;;;;25.70;8.48;;;384.40;1664.00;;;;;;5094720;28;20024;-61
2022/03/31 04:52:39;;;;;;;17.92;5.88;;;384.40;1689.60;;;;;;5094507;28;20040;-62
2022/03/31 04:55:05;;;;;;;29.05;6.80;;;384.40;1689.60;;;;;;5094488;28;20031;-61
2022/03/31 04:57:31;;;;;;;19.23;5.93;;;384.40;1689.60;;;;;;5094512;28;20035;-60
2022/03/31 04:59:57;;;;;;;19.67;5.43;;;384.40;1689.60;;;;;;5094610;28;20020;-62
2022/03/31 05:02:22;;;;;;;17.70;5.35;;;384.40;1715.20;;;;;;5094344;28;20453;-60
2022/03/31 05:04:48;;;;;;;15.38;5.03;;;384.40;1715.20;;;;;;5094308;28;20028;-61
2022/03/31 05:07:14;;;;;;;22.38;5.97;;;384.40;1715.20;;;;;;5094489;28;20073;-61
2022/03/31 05:09:41;;;;;;;18.95;5.32;;;384.40;1715.20;;;;;;5093940;28;20048;-60
2022/03/31 05:12:08;;;;;;;25.70;6.07;;;384.40;1715.20;;;;;;5094100;28;20399;-61
2022/03/31 05:14:34;;;;;;;23.23;5.40;;;384.40;1715.20;;;;;;5094050;28;20016;-62
2022/03/31 05:17:01;;;;;;;15.70;5.07;;;384.30;1740.80;;;;;;5094297;28;20039;-61
2022/03/31 05:19:27;;;;;;;14.60;5.18;;;384.40;1740.80;;;;;;5094335;28;20073;-62
2022/03/31 05:21:53;;;;;;;13.77;5.32;;;384.30;1740.80;;;;;;5093812;28;20028;-61
2022/03/31 05:24:19;;;;;;;21.42;5.82;;;384.30;1740.80;;;;;;5094085;28;20116;-62
2022/03/31 05:26:45;;;;;;;16.85;5.13;;;384.30;1740.80;;;;;;5094414;28;20056;-62
2022/03/31 05:29:13;;;;;;;21.20;5.82;;;384.20;1766.40;;;;;;5093892;28;20535;-62
2022/03/31 05:31:39;;;;;;;17.88;5.45;;;384.20;1792.00;;;;;;5093801;28;20024;-62
2022/03/31 05:34:05;;;;;;;17.80;5.15;;;384.30;1792.00;;;;;;5093836;28;20028;-61
2022/03/31 05:36:31;;;;;;;14.60;5.50;;;384.20;1817.60;;;;;;5093893;28;20044;-61
2022/03/31 05:38:57;;;;;;;13.80;4.78;;;384.20;1817.60;;;;;;5094270;28;20059;-61
2022/03/31 05:41:24;;;;;;;16.83;4.95;;;384.20;1817.60;;;;;;5093858;28;20381;-62
2022/03/31 05:43:50;;;;;;;15.02;4.97;;;384.20;1843.20;;;;;;5093890;28;20095;-61
2022/03/31 05:46:15;;;;;;;16.25;5.43;;;384.20;1843.20;;;;;;5093551;28;20158;-63
2022/03/31 05:48:41;;;;;;;15.93;6.88;;;384.10;1868.80;;;;;;5093882;28;20050;-63
2022/03/31 05:51:07;;;;;;;19.00;7.60;;;384.10;1843.20;;;;;;5094518;28;20383;-63
2022/03/31 05:53:33;;;;;;;25.35;11.02;;;384.10;1817.60;;;;;;5097749;28;20031;-63
2022/03/31 05:55:59;;;;;;;24.35;12.40;;;384.10;1868.80;;;;;;5097638;28;20367;-63
2022/03/31 05:58:25;;;;;;;25.17;13.65;;;384.10;1868.80;;;;;;5097573;28;20085;-63
2022/03/31 06:00:53;;;;;;;25.40;11.75;;;384.10;1894.40;;;;;;5097745;28;20035;-63
2022/03/31 06:03:22;;;;;;;22.75;8.75;;;384.10;1894.40;;;;;;5097724;28;20351;-63
2022/03/31 06:05:49;;;;;;;30.92;11.60;;;384.10;1894.40;;;;;;5097625;28;20089;-63
2022/03/31 06:08:15;;;;;;;33.97;14.25;;;384.10;1894.40;;;;;;5097581;28;20047;-63
2022/03/31 06:10:42;;;;;;;27.52;10.55;;;384.10;1920.00;;;;;;5097811;28;20424;-64
2022/03/31 06:13:09;;;;;;;16.58;8.52;;;384.10;1945.60;;;;;;5097629;28;20047;-64
2022/03/31 06:15:35;;;;;;;19.05;8.38;;;384.10;1945.60;;;;;;5097515;28;20016;-64
2022/03/31 06:18:01;;;;;;;20.27;7.13;;;384.10;1945.60;;;;;;5097646;28;20032;-67
2022/03/31 06:20:30;;;;;;;16.40;6.82;;;384.10;1945.60;;;;;;5096107;28;20362;-64
2022/03/31 06:22:57;;;;;;;18.17;6.75;;;384.10;1945.60;;;;;;5097610;28;20470;-64
2022/03/31 06:25:23;;;;;;;20.30;8.10;;;384.10;1945.60;;;;;;5097577;28;20406;-61
2022/03/31 06:27:49;;;;;;;20.35;6.82;;;384.10;1945.60;;;;;;5097420;28;20035;-65
2022/03/31 06:30:16;;;;;;;16.20;6.18;;;384.10;1945.60;;;;;;5097191;28;20400;-62
2022/03/31 06:32:42;;;;;;;20.20;7.93;;;384.10;1945.60;;;;;;5097216;28;20039;-66
2022/03/31 06:35:14;;;;;;;20.33;7.57;;;384.10;1945.60;;;;;;5097418;28;20047;-59
2022/03/31 06:37:41;;;;;;;16.70;6.70;;;384.10;1945.60;;;;;;5097166;28;20036;-62
2022/03/31 06:40:09;;;;;;;16.88;6.10;;;384.10;1894.40;;;;;;5097174;28;20020;-60
2022/03/31 06:42:35;;;;;;;16.40;6.60;;;384.10;1920.00;;;;;;5097218;28;20049;-60
2022/03/31 06:45:02;;;;;;;17.77;8.00;;;384.10;1920.00;;;;;;5096963;28;20028;-65
2022/03/31 06:47:28;;;;;;;19.13;7.18;;;384.10;1920.00;;;;;;5097016;28;20034;-67
2022/03/31 06:49:54;;;;;;;23.90;9.88;;;384.20;1920.00;;;;;;5096936;28;20069;-59
2022/03/31 06:52:19;;;;;;;22.30;8.18;;;384.20;1894.40;;;;;;5097187;28;20028;-60
2022/03/31 06:54:45;;;;;;;20.88;6.82;;;384.20;1920.00;;;;;;5096939;28;20024;-66
2022/03/31 06:57:12;;;;;;;19.20;9.07;;;384.30;1894.40;;;;;;5096778;28;20115;-67
2022/03/31 06:59:38;;;;;;;29.17;10.45;;;384.30;1894.40;;;;;;5096947;28;20051;-60
2022/03/31 07:02:03;;;;;;;26.25;10.00;;;384.30;1894.40;;;;;;5096758;28;20040;-66
2022/03/31 07:04:29;;;;;;;30.30;12.32;;;384.40;1894.40;;;;;;5096623;28;20482;-59
2022/03/31 07:06:55;;;;;;;29.65;12.75;;;384.40;1868.80;;;;;;5096750;28;20075;-67
2022/03/31 07:09:21;;;;;;;30.25;12.85;;;384.40;1868.80;;;;;;5096339;28;20044;-67
2022/03/31 07:11:46;;;;;;;35.83;11.25;;;384.40;1868.80;;;;;;5096570;28;20043;-60
2022/03/31 07:14:12;;;;;;;28.13;11.68;;;384.40;1868.80;;;;;;5096325;28;20024;-62
2022/03/31 07:16:38;;;;;;;27.73;10.45;;;384.40;1868.80;;;;;;5096563;28;20028;-65
2022/03/31 07:19:04;;;;;;;27.17;9.52;;;384.40;1843.20;;;;;;5096540;28;20024;-59
2022/03/31 07:21:30;;;;;;;32.63;9.88;;;384.40;1843.20;;;;;;5096322;28;20065;-66
2022/03/31 07:23:56;;;;;;;27.25;10.48;;;384.50;1843.20;;;;;;5096349;28;20028;-60
2022/03/31 07:26:25;;;;;;;26.63;9.48;;;384.50;1843.20;;;;;;5096000;28;20024;-62
2022/03/31 07:28:50;;;;;;;34.78;10.20;;;384.50;1817.60;;;;;;5096302;28;20020;-67
2022/03/31 07:31:16;;;;;;;31.27;10.13;;;384.50;1817.60;;;;;;5096186;28;20039;-60
2022/03/31 07:33:42;;;;;;;26.95;11.05;;;384.60;1817.60;;;;;;5096095;28;20579;-66
2022/03/31 07:36:10;;;;;;;31.58;10.18;;;384.60;1817.60;;;;;;5096236;28;20086;-65
2022/03/31 07:38:35;;;;;;;26.15;9.50;;;384.70;1817.60;;;;;;5096071;28;20027;-66
2022/03/31 07:41:01;;;;;;;27.73;10.50;;;384.70;1817.60;;;;;;5096115;28;20020;-66
2022/03/31 07:43:27;;;;;;;19.88;9.13;;;384.70;1792.00;;;;;;5095788;28;20024;-67
2022/03/31 07:45:54;;;;;;;36.22;10.70;;;384.80;1792.00;;;;;;5095699;28;20021;-65
2022/03/31 07:48:20;;;;;;;30.63;10.63;;;384.80;1792.00;;;;;;5095786;28;20035;-66
2022/03/31 07:50:46;;;;;;;28.45;9.73;;;384.90;1792.00;;;;;;5095823;28;20020;-60
2022/03/31 07:53:13;;;;;;;31.42;10.82;;;409.60;1817.60;;;;;;5095573;28;20413;-60
2022/03/31 07:55:39;;;;;;;32.08;10.27;;;409.70;1817.60;;;;;;5095721;28;20027;-63
2022/03/31 07:58:05;;;;;;;21.58;9.13;;;409.70;1817.60;;;;;;5095637;28;20028;-62
2022/03/31 08:00:31;;;;;;;26.30;9.57;;;409.70;1817.60;;;;;;5095617;28;20103;-60
2022/03/31 08:02:58;;;;;;;28.08;9.65;;;409.80;1792.00;;;;;;5096134;28;20095;-67
2022/03/31 08:05:27;;;;;;;24.33;9.93;;;409.90;1817.60;;;;;;5095902;28;20480;-63
2022/03/31 08:07:53;;;;;;;24.27;8.52;;;410.00;1817.60;;;;;;5095372;28;20017;-67
2022/03/31 08:10:20;;;;;;;22.58;9.38;;;410.00;1817.60;;;;;;5095426;28;20055;-66
2022/03/31 08:12:46;;;;;;;23.27;9.60;;;410.10;1817.60;;;;;;5094133;28;20385;-61
2022/03/31 08:15:15;;;;;;;33.55;9.90;;;410.10;1817.60;;;;;;5094983;28;20028;-66
2022/03/31 08:17:42;;;;;;;32.60;11.55;;;410.20;1792.00;;;;;;5095359;28;20120;-67
2022/03/31 08:20:11;;;;;;;26.15;9.07;;;410.20;1792.00;;;;;;5095282;28;20028;-61
2022/03/31 08:22:38;;;;;;;27.25;8.13;;;410.30;1792.00;;;;;;5095274;28;20020;-65
2022/03/31 08:25:06;;;;;;;32.38;11.60;;;410.30;1792.00;;;;;;5095313;28;20035;-67
2022/03/31 08:27:32;;;;;;;41.67;13.05;;;410.30;1817.60;;;;;;5095103;28;20099;-60
2022/03/31 08:29:59;;;;;;;36.38;13.00;;;410.40;1817.60;;;;;;5094880;28;20036;-60
2022/03/31 08:32:25;;;;;;;32.03;11.57;;;410.40;1817.60;;;;;;5095075;28;20042;-62
2022/03/31 08:34:51;;;;;;;62.83;19.83;;;410.50;1817.60;;;;;;5094785;28;20024;-66
2022/03/31 08:37:16;;;;;;;42.58;16.48;;;410.50;1817.60;;;;;;5094969;28;20032;-63
2022/03/31 08:39:42;;;;;;;36.70;14.27;;;435.20;1792.00;;;;;;5094833;28;20028;-62
2022/03/31 08:42:08;;;;;;;31.45;12.82;;;435.20;1792.00;;;;;;5094745;28;20028;-60
2022/03/31 08:44:39;;;;;;;36.78;12.73;;;435.40;1792.00;;;;;;5094594;28;20027;-66
2022/03/31 08:47:08;;;;;;;34.53;11.93;;;435.40;1792.00;;;;;;5094300;28;20081;-66
2022/03/31 08:49:35;;;;;;;28.80;11.45;;;435.60;1792.00;;;;;;5095225;28;20039;-66
2022/03/31 08:52:01;;;;;;;42.42;11.48;;;435.70;1766.40;;;;;;5094502;28;20028;-64
2022/03/31 08:54:26;;;;;;;32.08;9.60;;;435.70;1766.40;;;;;;5094719;28;20028;-67
2022/03/31 08:56:54;;;;;;;29.75;9.00;;;435.80;1715.20;;;;;;5094562;28;20031;-66
2022/03/31 08:59:19;;;;;;;36.42;8.40;;;435.80;1689.60;;;;;;5094556;28;20111;-66
2022/03/31 09:01:45;;;;;;;28.38;8.13;;;435.90;1689.60;;;;;;5094661;28;20047;-65
2022/03/31 09:04:25;;;;;;;33.65;8.60;;;435.90;1689.60;;;;;;5094049;28;20070;-61
2022/03/31 09:07:07;;;;;;;28.48;8.85;;;436.00;1664.00;;;;;;5094389;28;20540;-66
2022/03/31 09:09:44;;;;;;;32.95;9.27;;;436.00;1664.00;;;;;;5094056;28;20549;-64
2022/03/31 09:12:10;;;;;;;33.25;8.85;;;436.10;1664.00;;;;;;5094055;28;20498;-66
2022/03/31 09:14:35;;;;;;;36.60;9.38;;;460.80;1664.00;;;;;;5094283;28;20099;-67
2022/03/31 09:17:12;;;;;;;30.17;9.20;;;460.80;1664.00;;;;;;5094207;28;20397;-63
2022/03/31 09:19:39;;;;;;;42.05;11.07;;;460.90;1664.00;;;;;;5094180;28;20031;-62
2022/03/31 09:22:05;;;;;;;30.40;8.15;;;460.90;1664.00;;;;;;5092597;28;20035;-61
2022/03/31 09:24:31;;;;;;;30.45;9.32;;;460.90;1664.00;;;;;;5094225;28;20024;-67
2022/03/31 09:26:59;;;;;;;38.85;8.73;;;461.00;1638.40;;;;;;5093088;28;20169;-65
2022/03/31 09:29:30;;;;;;;38.20;8.32;;;461.00;1638.40;;;;;;5093939;28;20038;-65
2022/03/31 09:32:12;;;;;;;42.63;8.98;;;461.10;1612.80;;;;;;5094203;28;20081;-66
2022/03/31 09:34:47;;;;;;;31.58;7.75;;;461.00;1587.20;;;;;;5093940;28;20112;-65
2022/03/31 09:37:13;;;;;;;28.35;8.15;;;461.00;1587.20;;;;;;5092664;28;20470;-66
2022/03/31 09:39:40;;;;;;;37.47;9.30;;;461.10;1587.20;;;;;;5093322;28;20039;-61
2022/03/31 09:42:14;;;;;;;37.05;10.57;;;461.10;1587.20;;;;;;5092415;28;20458;-62
2022/03/31 09:44:42;;;;;;;37.28;7.70;;;461.20;1612.80;;;;;;5089812;28;20027;-63
2022/03/31 09:47:09;;;;;;;29.55;7.78;;;461.20;1587.20;;;;;;5092256;28;20044;-63
2022/03/31 09:49:35;;;;;;;44.50;8.32;;;461.20;1587.20;;;;;;5092338;28;20031;-61
2022/03/31 09:52:03;;;;;;;36.05;8.65;;;461.30;1561.60;;;;;;5092527;28;20028;-65
2022/03/31 09:54:32;;;;;;;31.40;9.60;;;461.30;1561.60;;;;;;5089749;28;20050;-66
2022/03/31 09:56:59;;;;;;;37.05;9.52;;;461.30;1561.60;;;;;;5092518;28;20081;-61
2022/03/31 09:59:48;;;;;;;33.33;9.27;;;461.50;1561.60;;;;;;5093813;28;20351;-64
2022/03/31 10:02:15;;;;;;;35.72;8.95;;;461.50;1536.00;;;;;;5093208;28;20115;-64
2022/03/31 10:04:44;;;;;;;37.35;8.70;;;461.50;1536.00;;;;;;5093628;28;20077;-60
2022/03/31 10:07:17;;;;;;;28.80;7.53;;;461.50;1536.00;;;;;;5093624;28;20039;-62
2022/03/31 10:09:44;;;;;;;31.50;8.40;;;461.60;1510.40;;;;;;5093611;28;20050;-61
2022/03/31 10:12:21;;;;;;;33.45;6.90;;;461.60;1510.40;;;;;;5091681;28;20493;-60
2022/03/31 10:14:54;;;;;;;33.40;7.80;;;461.60;1484.80;;;;;;5090959;28;20021;-62
2022/03/31 10:17:26;;;;;;;34.40;6.60;;;461.60;1484.80;;;;;;5089754;28;20047;-60
2022/03/31 10:19:52;;;;;;;28.67;6.38;;;461.60;1484.80;;;;;;5092298;28;20036;-60
2022/03/31 10:25:08;;;;;;;31.67;7.38;;;461.70;1484.80;;;;;;5027147;28;20037;-58
2022/03/31 10:27:36;;;;;;;26.50;8.25;;;461.60;1459.20;;;;;;5029598;28;20036;-61
2022/03/31 10:30:09;;;;;;;36.17;8.88;;;461.70;1459.20;;;;;;5029545;28;20109;-59
2022/03/31 10:32:35;;;;;;;41.00;11.73;;;486.40;1459.20;;;;;;5013173;28;20042;-59
2022/03/31 10:35:01;;;;;;;35.83;8.05;;;486.40;1459.20;;;;;;5029563;28;20378;-60
2022/03/31 10:37:36;;;;;;;22.67;6.57;;;486.40;1459.20;;;;;;5030901;28;20446;-59
2022/03/31 10:40:09;;;;;;;30.77;7.97;;;486.40;1459.20;;;;;;5033257;28;20017;-62
2022/03/31 10:42:37;;;;;;;29.90;6.00;;;486.40;1459.20;;;;;;5032901;28;20029;-59
2022/03/31 10:45:12;;;;;;;26.50;7.53;;;486.40;1459.20;;;;;;5033231;28;20026;-60
2022/03/31 10:47:40;;;;;;;33.22;8.30;;;486.40;1433.60;;;;;;5008731;28;20491;-60
2022/03/31 10:50:09;;;;;;;25.92;8.88;;;486.40;1459.20;;;;;;5030481;28;20032;-58
2022/03/31 10:52:35;;;;;;;29.63;7.90;;;486.40;1433.60;;;;;;5033112;28;20040;-59
2022/03/31 10:55:19;;;;;;;39.80;9.68;;;486.50;1433.60;;;;;;5032703;28;20565;-60
2022/03/31 10:57:45;;;;;;;28.40;6.47;;;486.50;1433.60;;;;;;5031915;28;20541;-59
2022/03/31 11:00:16;;;;;;;30.92;7.10;;;486.50;1433.60;;;;;;5017940;28;20029;-61
2022/03/31 11:02:46;;;;;;;20.08;6.50;;;486.50;1433.60;;;;;;5065024;28;20421;-58
2022/03/31 11:05:12;;;;;;;39.88;7.22;;;486.50;1408.00;;;;;;5076341;28;20040;-63
2022/03/31 11:07:38;;;;;;;22.20;6.25;;;486.50;1408.00;;;;;;5076443;28;20099;-59
2022/03/31 11:10:04;;;;;;;26.98;7.07;;;486.50;1433.60;;;;;;5076101;28;20044;-59
2022/03/31 11:12:30;;;;;;;18.35;6.03;;;486.50;1433.60;;;;;;5076335;28;20093;-59
2022/03/31 11:15:02;;;;;;;24.85;5.80;;;486.50;1408.00;;;;;;5076152;28;20028;-61
2022/03/31 11:17:29;;;;;;;22.92;6.63;;;486.50;1408.00;;;;;;5076302;28;20024;-63
2022/03/31 11:19:56;;;;;;;23.38;6.80;;;486.50;1433.60;;;;;;5076260;28;20103;-61
2022/03/31 11:22:27;;;;;;;28.13;6.18;;;486.50;1433.60;;;;;;5076261;28;20017;-59
2022/03/31 11:24:56;;;;;;;21.25;6.10;;;486.50;1433.60;;;;;;5076735;28;20401;-58
2022/03/31 11:27:36;;;;;;;25.35;5.72;;;486.40;1433.60;;;;;;5076165;28;20374;-59
2022/03/31 11:30:05;;;;;;;26.60;6.05;;;486.50;1433.60;;;;;;5075884;28;20023;-58
2022/03/31 11:32:32;;;;;;;19.90;5.82;;;486.40;1433.60;;;;;;5075703;28;20032;-59
2022/03/31 11:34:58;;;;;;;20.52;5.47;;;486.40;1433.60;;;;;;5075903;28;20470;-58
2022/03/31 11:37:24;;;;;;;26.33;5.85;;;461.70;1433.60;;;;;;5075710;28;20041;-58
2022/03/31 11:39:50;;;;;;;15.10;5.32;;;486.40;1459.20;;;;;;5075739;28;20107;-58
2022/03/31 11:42:16;;;;;;;19.00;5.53;;;486.40;1459.20;;;;;;5075708;28;20032;-59
2022/03/31 11:44:42;;;;;;;19.98;5.75;;;461.70;1459.20;;;;;;5075988;28;20373;-58
2022/03/31 11:47:12;;;;;;;23.70;6.15;;;461.60;1459.20;;;;;;5075691;28;20386;-59
2022/03/31 11:49:39;;;;;;;18.80;5.10;;;461.60;1459.20;;;;;;5074798;28;20020;-61
2022/03/31 11:52:06;;;;;;;18.85;4.93;;;461.60;1459.20;;;;;;5075611;28;20025;-58
2022/03/31 11:54:38;;;;;;;17.20;3.70;;;461.60;1484.80;;;;;;5075575;28;20031;-59
2022/03/31 11:57:06;;;;;;;11.93;3.53;;;461.50;1510.40;;;;;;5075482;28;20485;-58
2022/03/31 11:59:32;;;;;;;16.40;4.80;;;461.50;1510.40;;;;;;5075336;28;20033;-59
2022/03/31 12:01:58;;;;;;;21.25;5.82;;;461.50;1561.60;;;;;;5075257;28;20025;-58
2022/03/31 12:04:27;;;;;;;13.85;4.97;;;461.50;1561.60;;;;;;5075304;28;20378;-62
2022/03/31 12:06:54;;;;;;;15.57;6.63;;;461.30;1587.20;;;;;;5075144;28;20111;-58
2022/03/31 12:09:25;;;;;;;16.38;5.93;;;461.30;1612.80;;;;;;5075118;28;20056;-62
2022/03/31 12:11:55;;;;;;;22.98;7.03;;;461.30;1612.80;;;;;;5075516;28;20359;-62